Time;durP1;ratioP1;P1;durP2;ratioP2;P2;SDS_P1;SDS_P2;PMS_P1;PMS_P2;Temp;Humidity;BMP_temperature;BMP_pressure;BME280_temperature;BME280_humidity;BME280_pressure;Samples;Min_cycle;Max_cycle;Signal;HPM_P1;HPM_P2
2023/10/12 00:01:31;;;;;;;0.30;0.30;;;15.70;99.90;;;;;;5094102;28;20043;-74
2023/10/12 00:03:58;;;;;;;0.30;0.30;;;15.50;99.90;;;;;;5094026;28;20036;-73
2023/10/12 00:06:30;;;;;;;0.45;0.45;;;15.40;99.90;;;;;;5093987;28;20047;-74
2023/10/12 00:08:56;;;;;;;0.30;0.30;;;15.40;99.90;;;;;;5094391;28;20075;-75
2023/10/12 00:11:21;;;;;;;0.83;0.60;;;15.30;99.90;;;;;;5094368;28;20036;-74
2023/10/12 00:13:51;;;;;;;0.30;0.30;;;15.10;99.90;;;;;;5093866;28;20070;-74
2023/10/12 00:16:18;;;;;;;0.30;0.30;;;15.00;99.90;;;;;;5093868;28;20032;-74
2023/10/12 00:18:49;;;;;;;0.30;0.30;;;15.20;99.90;;;;;;5093458;28;20089;-76
2023/10/12 00:21:17;;;;;;;0.30;0.30;;;14.90;99.90;;;;;;5093852;28;20093;-76
2023/10/12 00:23:44;;;;;;;0.30;0.30;;;14.80;99.90;;;;;;5093710;28;20044;-75
2023/10/12 00:26:09;;;;;;;0.45;0.45;;;14.70;99.90;;;;;;5092683;28;20101;-75
2023/10/12 00:28:38;;;;;;;0.40;0.40;;;14.70;99.90;;;;;;5093674;28;20051;-75
2023/10/12 00:31:16;;;;;;;0.40;0.40;;;14.70;99.90;;;;;;5095711;28;20446;-76
2023/10/12 00:33:42;;;;;;;0.30;0.30;;;14.60;99.90;;;;;;5100474;28;20044;-75
2023/10/12 00:36:21;;;;;;;0.40;0.40;;;14.70;99.90;;;;;;5100408;28;20036;-75
2023/10/12 00:38:46;;;;;;;0.30;0.30;;;14.70;99.90;;;;;;5100443;28;20414;-75
2023/10/12 00:41:14;;;;;;;0.80;0.80;;;14.90;99.90;;;;;;5100405;28;20032;-75
2023/10/12 00:51:52;;;;;;;0.50;0.50;;;14.50;99.90;;;;;;5100603;28;20048;-75
2023/10/12 00:54:27;;;;;;;0.40;0.40;;;14.50;99.90;;;;;;5100547;28;20032;-75
2023/10/12 00:57:01;;;;;;;0.32;0.32;;;14.40;99.90;;;;;;5099943;28;20460;-75
2023/10/12 00:59:31;;;;;;;0.63;0.63;;;14.30;99.90;;;;;;5100688;28;20040;-75
2023/10/12 01:02:09;;;;;;;0.30;0.30;;;14.20;99.90;;;;;;5100523;28;20044;-75
2023/10/12 01:04:41;;;;;;;0.40;0.40;;;14.20;99.90;;;;;;5100078;28;20378;-75
2023/10/12 01:07:11;;;;;;;0.40;0.40;;;14.10;99.90;;;;;;5100154;28;20165;-75
2023/10/12 01:09:39;;;;;;;0.30;0.30;;;14.10;99.90;;;;;;5099756;28;20544;-75
2023/10/12 01:12:14;;;;;;;0.40;0.40;;;14.00;99.90;;;;;;5100097;28;20040;-75
2023/10/12 01:14:51;;;;;;;0.40;0.40;;;14.00;99.90;;;;;;5100139;28;20101;-75
2023/10/12 01:17:18;;;;;;;0.38;0.38;;;14.00;99.90;;;;;;5099467;28;20051;-75
2023/10/12 01:19:46;;;;;;;0.30;0.30;;;14.10;99.90;;;;;;5099959;28;20379;-75
2023/10/12 01:22:13;;;;;;;0.40;0.40;;;14.10;99.90;;;;;;5099749;28;20071;-76
2023/10/12 01:27:21;;;;;;;0.30;0.30;;;14.10;99.90;;;;;;5100099;28;19916;-76
2023/10/12 01:29:47;;;;;;;0.40;0.40;;;14.20;99.90;;;;;;5099603;28;20101;-76
2023/10/12 01:34:44;;;;;;;0.40;0.40;;;14.20;99.90;;;;;;5099920;28;20184;-76
2023/10/12 01:37:23;;;;;;;0.40;0.40;;;14.20;99.90;;;;;;5100422;28;20417;-75
2023/10/12 01:40:08;;;;;;;0.40;0.40;;;14.30;99.90;;;;;;5100128;28;20047;-75
2023/10/12 01:45:33;;;;;;;0.30;0.30;;;14.30;99.90;;;;;;5096606;28;20036;-76
2023/10/12 01:48:07;;;;;;;0.30;0.30;;;14.20;99.90;;;;;;5096901;28;20047;-75
2023/10/12 01:50:37;;;;;;;0.30;0.30;;;14.30;99.90;;;;;;5096786;28;20051;-75
2023/10/12 01:53:11;;;;;;;0.40;0.40;;;14.20;99.90;;;;;;5096330;28;20044;-75
2023/10/12 01:55:37;;;;;;;0.35;0.35;;;14.30;99.90;;;;;;5095193;28;20115;-75
2023/10/12 01:58:04;;;;;;;0.40;0.40;;;14.30;99.90;;;;;;5096386;28;20129;-75
2023/10/12 02:00:39;;;;;;;0.40;0.40;;;14.50;99.90;;;;;;5096065;28;20506;-75
2023/10/12 02:05:47;;;;;;;0.30;0.30;;;14.20;99.90;;;;;;5096102;28;20456;-75
2023/10/12 02:08:17;;;;;;;0.38;0.38;;;14.20;99.90;;;;;;5095898;28;20058;-75
2023/10/12 02:10:56;;;;;;;0.50;0.50;;;14.20;99.90;;;;;;5096070;28;20047;-75
2023/10/12 02:13:23;;;;;;;0.40;0.40;;;14.20;99.90;;;;;;5096452;28;20117;-75
2023/10/12 02:15:52;;;;;;;0.30;0.30;;;14.20;99.90;;;;;;5096025;28;20047;-75
2023/10/12 02:18:21;;;;;;;0.40;0.40;;;14.00;99.90;;;;;;5096013;28;20048;-75
2023/10/12 02:23:38;;;;;;;0.40;0.40;;;14.10;99.90;;;;;;5096273;28;20044;-76
2023/10/12 02:26:16;;;;;;;0.50;0.50;;;14.20;99.90;;;;;;5096147;28;20042;-76
2023/10/12 02:28:53;;;;;;;0.40;0.40;;;14.10;99.90;;;;;;5095859;28;20048;-75
2023/10/12 02:31:20;;;;;;;1.85;1.20;;;14.10;99.90;;;;;;5095442;28;20040;-75
2023/10/12 02:33:45;;;;;;;;;;;14.20;99.90;;;;;;5096148;28;20044;-75
2023/10/12 02:36:13;;;;;;;0.38;0.38;;;14.10;99.90;;;;;;5095582;28;20425;-75
2023/10/12 02:38:41;;;;;;;0.30;0.30;;;14.10;99.90;;;;;;5095567;28;20397;-75
2023/10/12 02:41:12;;;;;;;0.50;0.50;;;14.10;99.90;;;;;;5094541;28;20036;-76
2023/10/12 02:43:49;;;;;;;0.30;0.30;;;14.20;99.90;;;;;;5095474;28;20498;-75
2023/10/12 02:46:22;;;;;;;0.30;0.30;;;14.10;99.90;;;;;;5095381;28;20036;-75
2023/10/12 02:48:50;;;;;;;0.40;0.40;;;14.10;99.90;;;;;;5095716;28;20036;-75
2023/10/12 02:51:17;;;;;;;0.40;0.40;;;14.10;99.90;;;;;;5095506;28;20436;-74
2023/10/12 02:53:44;;;;;;;;;;;14.10;99.90;;;;;;5095316;28;20475;-74
2023/10/12 02:56:10;;;;;;;0.47;0.47;;;14.10;99.90;;;;;;5095279;28;19916;-75
2023/10/12 02:58:37;;;;;;;0.60;0.60;;;14.10;99.90;;;;;;5095420;28;20169;-75
2023/10/12 03:01:18;;;;;;;0.40;0.40;;;14.10;99.90;;;;;;5095291;28;20085;-76
2023/10/12 03:03:52;;;;;;;0.40;0.40;;;14.00;99.90;;;;;;5095195;28;20464;-75
2023/10/12 03:06:22;;;;;;;0.30;0.30;;;13.90;99.90;;;;;;5094973;28;20040;-75
2023/10/12 03:11:27;;;;;;;0.30;0.30;;;14.00;99.90;;;;;;5095225;28;20051;-75
2023/10/12 03:14:13;;;;;;;0.40;0.40;;;14.00;99.90;;;;;;5094841;28;20032;-75
2023/10/12 03:16:43;;;;;;;0.50;0.50;;;13.90;99.90;;;;;;5094876;28;20483;-75
2023/10/12 03:21:52;;;;;;;0.38;0.38;;;13.90;99.90;;;;;;5095532;28;20122;-75
2023/10/12 03:24:24;;;;;;;0.40;0.40;;;13.90;99.90;;;;;;5095083;28;20050;-75
2023/10/12 03:27:11;;;;;;;0.50;0.50;;;13.90;99.90;;;;;;5094727;28;20123;-75
2023/10/12 03:29:43;;;;;;;0.95;0.60;;;13.80;99.90;;;;;;5093903;28;20160;-75
2023/10/12 03:32:12;;;;;;;0.65;0.65;;;13.80;99.90;;;;;;5095159;28;20388;-77
2023/10/12 03:37:16;;;;;;;0.40;0.40;;;13.80;99.90;;;;;;5094748;28;20043;-75
2023/10/12 03:39:58;;;;;;;0.35;0.35;;;13.80;99.90;;;;;;5094506;28;20040;-75
2023/10/12 03:44:55;;;;;;;0.30;0.30;;;13.70;99.90;;;;;;5094865;28;20127;-75
2023/10/12 03:52:39;;;;;;;0.30;0.30;;;13.60;99.90;;;;;;5094517;28;20388;-75
2023/10/12 04:05:21;;;;;;;0.40;0.40;;;13.70;99.90;;;;;;5094207;28;20036;-75
2023/10/12 04:13:54;;;;;;;0.35;0.35;;;13.70;99.90;;;;;;5094085;28;20083;-76
2023/10/12 04:19:29;;;;;;;0.35;0.35;;;13.70;99.90;;;;;;5092770;28;20381;-75
2023/10/12 04:21:36;;;;;;;0.40;0.40;;;13.70;99.90;;;;;;5085343;28;20048;-74
2023/10/12 04:31:56;;;;;;;0.30;0.30;;;13.70;99.90;;;;;;5093778;28;20040;-75
2023/10/12 04:34:35;;;;;;;0.40;0.40;;;13.70;99.90;;;;;;5093493;28;20580;-74
2023/10/12 04:37:11;;;;;;;0.35;0.35;;;13.70;99.90;;;;;;5093471;28;20047;-77
2023/10/12 04:39:37;;;;;;;0.40;0.40;;;13.70;99.90;;;;;;5094175;28;20044;-78
2023/10/12 04:42:20;;;;;;;0.40;0.40;;;13.70;99.90;;;;;;5093078;28;20117;-76
2023/10/12 04:45:02;;;;;;;0.50;0.50;;;13.70;99.90;;;;;;5093699;28;20040;-76
2023/10/12 04:47:30;;;;;;;0.40;0.40;;;13.70;99.90;;;;;;5093832;28;20413;-73
2023/10/12 04:49:57;;;;;;;0.50;0.50;;;13.70;99.90;;;;;;5093549;28;20040;-73
2023/10/12 04:52:32;;;;;;;;;;;13.70;99.90;;;;;;5093892;28;20043;-73
2023/10/12 04:55:00;;;;;;;0.43;0.43;;;13.60;99.90;;;;;;5093709;28;20271;-73
2023/10/12 04:57:34;;;;;;;0.50;0.50;;;13.60;99.90;;;;;;5093379;28;20040;-73
2023/10/12 05:03:02;;;;;;;0.40;0.40;;;13.60;99.90;;;;;;5093875;28;20048;-73
2023/10/12 05:07:54;;;;;;;0.40;0.40;;;13.60;99.90;;;;;;5093347;28;20052;-73
2023/10/12 05:11:08;;;;;;;0.50;0.50;;;13.60;99.90;;;;;;5093419;28;20040;-73
2023/10/12 05:13:19;;;;;;;0.40;0.40;;;13.70;99.90;;;;;;5084704;28;20048;-73
2023/10/12 05:15:51;;;;;;;0.40;0.40;;;13.70;99.90;;;;;;5093376;28;20044;-73
2023/10/12 05:18:24;;;;;;;0.30;0.30;;;13.60;99.90;;;;;;5095827;28;20502;-73
2023/10/12 05:20:51;;;;;;;0.40;0.40;;;13.60;99.90;;;;;;5095621;28;20047;-74
2023/10/12 05:23:17;;;;;;;0.40;0.40;;;13.60;99.90;;;;;;5097101;28;20446;-74
2023/10/12 05:28:19;;;;;;;0.50;0.50;;;13.70;99.90;;;;;;5097314;28;20395;-73
2023/10/12 05:30:55;;;;;;;0.40;0.40;;;13.60;99.90;;;;;;5096906;28;20153;-72
2023/10/12 05:36:05;;;;;;;0.40;0.40;;;13.60;99.90;;;;;;5096801;28;20119;-74
2023/10/12 05:38:34;;;;;;;0.40;0.40;;;13.60;99.90;;;;;;5096997;28;20079;-74
2023/10/12 05:41:04;;;;;;;0.70;0.70;;;13.60;99.90;;;;;;5096776;28;20371;-74
2023/10/12 05:43:33;;;;;;;0.40;0.40;;;13.60;99.90;;;;;;5096567;28;20043;-73
2023/10/12 05:46:09;;;;;;;0.50;0.50;;;13.60;99.90;;;;;;5096515;28;20111;-75
2023/10/12 05:48:41;;;;;;;0.50;0.50;;;13.60;99.90;;;;;;5096592;28;20059;-75
2023/10/12 05:51:10;;;;;;;0.50;0.50;;;13.60;99.90;;;;;;5096678;28;20035;-75
2023/10/12 05:53:37;;;;;;;0.38;0.38;;;13.60;99.90;;;;;;5096479;28;20067;-75
2023/10/12 05:56:05;;;;;;;0.40;0.40;;;13.50;99.90;;;;;;5096435;28;20066;-75
2023/10/12 05:58:33;;;;;;;0.60;0.60;;;13.50;99.90;;;;;;5078511;28;20044;-76
2023/10/12 06:01:08;;;;;;;0.40;0.40;;;13.50;99.90;;;;;;5096379;28;20050;-75
2023/10/12 06:03:34;;;;;;;0.40;0.40;;;13.60;99.90;;;;;;5096214;28;20046;-75
2023/10/12 06:06:00;;;;;;;;;;;13.50;99.90;;;;;;5096664;28;20036;-75
2023/10/12 06:08:27;;;;;;;0.50;0.50;;;13.50;99.90;;;;;;5095817;28;20248;-75
2023/10/12 06:10:54;;;;;;;0.43;0.43;;;13.50;99.90;;;;;;5096072;28;20134;-76
2023/10/12 06:13:30;;;;;;;0.50;0.50;;;13.50;99.90;;;;;;5096049;28;20384;-75
2023/10/12 06:15:56;;;;;;;0.60;0.60;;;13.50;99.90;;;;;;5096362;28;20101;-75
2023/10/12 06:18:21;;;;;;;0.50;0.50;;;13.50;99.90;;;;;;5095923;28;20044;-75
2023/10/12 06:20:58;;;;;;;0.60;0.60;;;13.50;99.90;;;;;;5095203;28;20044;-76
2023/10/12 06:23:27;;;;;;;0.40;0.40;;;13.50;99.90;;;;;;5090002;28;20836;-75
2023/10/12 06:25:52;;;;;;;0.50;0.50;;;13.50;99.90;;;;;;5095289;28;20543;-75
2023/10/12 06:28:18;;;;;;;0.47;0.47;;;13.40;99.90;;;;;;5095330;28;20122;-77
2023/10/12 06:30:45;;;;;;;0.50;0.50;;;13.80;99.90;;;;;;5094850;28;20046;-78
2023/10/12 06:33:15;;;;;;;0.40;0.40;;;13.40;99.90;;;;;;5095274;28;20491;-79
2023/10/12 06:36:06;;;;;;;0.35;0.35;;;13.40;99.90;;;;;;5095380;28;20040;-78
2023/10/12 06:44:13;;;;;;;0.50;0.50;;;13.40;99.90;;;;;;5062974;28;20386;-79
2023/10/12 06:46:46;;;;;;;0.50;0.50;;;13.30;99.90;;;;;;5095400;28;20036;-80
2023/10/12 06:49:21;;;;;;;0.45;0.45;;;13.30;99.90;;;;;;5095292;28;20032;-78
2023/10/12 06:52:00;;;;;;;0.40;0.40;;;13.30;99.90;;;;;;5095323;28;20114;-78
2023/10/12 07:02:30;;;;;;;0.40;0.40;;;13.30;99.90;;;;;;5063319;28;20048;-75
2023/10/12 07:04:57;;;;;;;0.40;0.40;;;13.30;99.90;;;;;;5094735;28;20084;-80
2023/10/12 07:07:27;;;;;;;;;;;13.30;99.90;;;;;;5094897;28;20040;-74
2023/10/12 07:10:08;;;;;;;0.40;0.40;;;13.30;99.90;;;;;;5094758;28;19978;-77
2023/10/12 07:12:34;;;;;;;0.40;0.40;;;13.30;99.90;;;;;;5094695;28;20097;-77
2023/10/12 07:14:59;;;;;;;0.50;0.50;;;13.30;99.90;;;;;;5094615;28;20043;-77
2023/10/12 07:17:34;;;;;;;0.53;0.53;;;13.30;99.90;;;;;;5093847;28;20043;-77
2023/10/12 07:20:01;;;;;;;0.65;0.65;;;13.30;99.90;;;;;;5094765;28;20097;-79
2023/10/12 07:22:26;;;;;;;0.50;0.50;;;13.40;99.90;;;;;;5094590;28;20044;-77
2023/10/12 07:24:53;;;;;;;0.50;0.50;;;13.40;99.90;;;;;;5094258;28;20177;-77
2023/10/12 07:27:22;;;;;;;;;;;13.40;99.90;;;;;;5094941;28;20048;-77
2023/10/12 07:30:01;;;;;;;0.40;0.40;;;13.50;99.90;;;;;;5094632;28;19922;-77
2023/10/12 07:32:31;;;;;;;0.50;0.50;;;13.50;99.90;;;;;;5094614;28;20144;-78
2023/10/12 07:34:58;;;;;;;0.50;0.50;;;13.50;99.90;;;;;;5093393;28;20044;-77
2023/10/12 07:37:24;;;;;;;0.60;0.60;;;13.50;99.90;;;;;;5094418;28;20052;-78
2023/10/12 07:39:51;;;;;;;0.50;0.50;;;13.60;99.90;;;;;;5093126;28;20044;-77
2023/10/12 07:42:25;;;;;;;0.40;0.40;;;13.60;99.90;;;;;;5092646;28;20050;-76
2023/10/12 07:44:54;;;;;;;0.40;0.40;;;13.70;99.90;;;;;;5094515;28;20400;-78
2023/10/12 07:47:41;;;;;;;0.70;0.70;;;13.70;99.90;;;;;;5094291;28;20463;-76
2023/10/12 07:50:10;;;;;;;0.40;0.40;;;13.80;99.90;;;;;;5094382;28;20380;-78
2023/10/12 07:52:48;;;;;;;0.50;0.50;;;13.90;99.90;;;;;;5092894;28;20071;-77
2023/10/12 07:55:18;;;;;;;0.50;0.50;;;14.00;99.90;;;;;;5093706;28;20123;-76
2023/10/12 07:57:47;;;;;;;0.40;0.40;;;14.10;99.90;;;;;;5093794;28;20048;-75
2023/10/12 08:24:02;;;;;;;0.35;0.35;;;14.60;99.90;;;;;;5093519;28;20044;-72
2023/10/12 08:26:47;;;;;;;0.32;0.32;;;14.70;99.90;;;;;;5093548;28;20032;-72
2023/10/12 08:32:02;;;;;;;0.40;0.40;;;14.90;99.90;;;;;;5093461;28;20044;-73
2023/10/12 08:39:50;;;;;;;0.30;0.30;;;15.00;99.90;;;;;;5093565;28;20087;-73
2023/10/12 08:44:55;;;;;;;0.38;0.38;;;15.10;99.90;;;;;;5093463;28;20040;-74
2023/10/12 08:48:09;;;;;;;0.38;0.38;;;15.10;99.90;;;;;;5093329;28;20382;-72
2023/10/12 08:50:14;;;;;;;6.22;0.50;;;15.20;99.90;;;;;;5085646;28;20048;-75
2023/10/12 08:52:43;;;;;;;0.50;0.50;;;15.20;99.90;;;;;;5095139;28;20079;-76
2023/10/12 08:55:12;;;;;;;0.38;0.38;;;15.20;99.90;;;;;;5097328;28;20422;-75
2023/10/12 08:57:55;;;;;;;1.25;0.80;;;15.20;99.90;;;;;;5097504;28;20368;-74
2023/10/12 09:03:00;;;;;;;;;;;15.20;99.90;;;;;;5098060;28;20055;-74
2023/10/12 09:05:30;;;;;;;0.30;0.30;;;15.20;99.90;;;;;;5097229;28;19963;-76
2023/10/12 09:08:07;;;;;;;0.35;0.35;;;15.20;99.90;;;;;;5097375;28;20087;-81
2023/10/12 09:13:29;;;;;;;0.40;0.40;;;15.20;99.90;;;;;;5097241;28;20055;-77
2023/10/12 09:15:58;;;;;;;0.40;0.40;;;15.20;99.90;;;;;;5097362;28;20359;-74
2023/10/12 09:18:29;;;;;;;0.45;0.45;;;15.10;99.90;;;;;;5097105;28;20078;-75
2023/10/12 09:21:17;;;;;;;0.30;0.30;;;15.20;99.90;;;;;;5096711;28;20037;-73
2023/10/12 09:26:30;;;;;;;0.40;0.40;;;15.10;99.90;;;;;;5096807;28;20464;-74
2023/10/12 09:36:55;;;;;;;0.40;0.40;;;15.20;99.90;;;;;;5096734;28;20040;-74
2023/10/12 09:39:26;;;;;;;0.40;0.40;;;15.10;99.90;;;;;;5095420;28;20048;-75
2023/10/12 09:42:09;;;;;;;0.40;0.40;;;15.20;99.90;;;;;;5096394;28;20365;-78
2023/10/12 09:44:39;;;;;;;0.40;0.40;;;15.30;99.90;;;;;;5096718;28;20083;-73
2023/10/12 09:47:12;;;;;;;0.40;0.40;;;15.30;99.90;;;;;;5096542;28;20042;-75
2023/10/12 09:49:44;;;;;;;0.30;0.30;;;15.40;99.90;;;;;;5096456;28;20081;-73
2023/10/12 09:52:17;;;;;;;0.40;0.40;;;15.40;99.90;;;;;;5095054;28;20051;-74
2023/10/12 09:54:53;;;;;;;0.35;0.35;;;15.40;99.90;;;;;;5096619;28;20036;-74
2023/10/12 09:57:23;;;;;;;0.35;0.35;;;15.50;99.90;;;;;;5096663;28;20414;-75
2023/10/12 09:59:52;;;;;;;0.40;0.40;;;15.50;99.90;;;;;;5096385;28;20379;-73
2023/10/12 10:02:28;;;;;;;0.40;0.40;;;15.60;99.90;;;;;;5096209;28;20079;-73
2023/10/12 10:05:11;;;;;;;0.70;0.70;;;15.60;99.90;;;;;;5094877;28;20118;-74
2023/10/12 10:07:42;;;;;;;0.35;0.35;;;15.70;99.90;;;;;;5096143;28;20529;-73
2023/10/12 10:10:27;;;;;;;0.50;0.50;;;15.70;99.90;;;;;;5103147;28;20036;-72
2023/10/12 10:12:52;;;;;;;0.85;0.40;;;15.80;99.90;;;;;;5096110;28;20122;-75
2023/10/12 10:15:24;;;;;;;0.50;0.50;;;15.80;99.90;;;;;;5095085;28;20127;-71
2023/10/12 10:17:56;;;;;;;0.40;0.40;;;15.80;99.90;;;;;;5095908;28;20093;-71
2023/10/12 10:23:02;;;;;;;0.50;0.50;;;16.00;99.90;;;;;;5095923;28;20040;-72
2023/10/12 10:25:56;;;;;;;0.30;0.30;;;15.90;99.90;;;;;;5095835;28;20071;-74
2023/10/12 10:28:32;;;;;;;0.45;0.45;;;15.90;99.90;;;;;;5088016;28;20075;-74
2023/10/12 10:31:01;;;;;;;0.30;0.30;;;15.90;99.90;;;;;;5095623;28;20043;-71
2023/10/12 10:33:29;;;;;;;0.40;0.40;;;15.80;99.90;;;;;;5095467;28;20048;-72
2023/10/12 10:35:56;;;;;;;0.30;0.30;;;15.80;99.90;;;;;;5094440;28;20032;-73
2023/10/12 10:38:23;;;;;;;1.45;0.52;;;15.70;99.90;;;;;;5095468;28;20044;-73
2023/10/12 10:40:49;;;;;;;0.63;0.63;;;15.80;99.90;;;;;;5095682;28;20089;-78
2023/10/12 10:43:17;;;;;;;0.33;0.33;;;15.70;99.90;;;;;;5095771;28;20048;-80
2023/10/12 10:45:56;;;;;;;0.40;0.40;;;15.80;99.90;;;;;;5095683;28;20082;-75
2023/10/12 10:48:22;;;;;;;0.40;0.40;;;15.80;99.90;;;;;;5095473;28;20050;-77
2023/10/12 10:50:51;;;;;;;;;;;15.80;99.90;;;;;;5095552;28;20058;-75
2023/10/12 10:53:20;;;;;;;0.30;0.30;;;15.80;99.90;;;;;;5095296;28;19916;-75
2023/10/12 10:55:50;;;;;;;0.60;0.60;;;15.80;99.90;;;;;;5095515;28;20036;-76
2023/10/12 10:58:17;;;;;;;0.30;0.30;;;15.90;99.90;;;;;;5095305;28;20049;-78
2023/10/12 11:00:46;;;;;;;0.32;0.32;;;15.80;99.90;;;;;;5093777;28;20040;-76
2023/10/12 11:03:18;;;;;;;0.38;0.38;;;15.80;99.90;;;;;;5094966;28;20387;-80
2023/10/12 11:05:47;;;;;;;0.40;0.40;;;15.80;99.90;;;;;;5094640;28;20044;-79
2023/10/12 11:08:26;;;;;;;0.60;0.60;;;15.90;99.90;;;;;;5093495;28;20063;-80
2023/10/12 11:13:38;;;;;;;0.50;0.50;;;16.00;99.90;;;;;;5095019;28;20094;-77
2023/10/12 11:16:20;;;;;;;0.30;0.30;;;16.00;99.90;;;;;;5094408;28;20032;-79
2023/10/12 11:18:52;;;;;;;0.50;0.50;;;16.10;99.90;;;;;;5095108;28;20044;-78
2023/10/12 11:21:18;;;;;;;0.88;0.82;;;16.20;99.90;;;;;;5094618;28;20443;-77
2023/10/12 11:23:44;;;;;;;0.32;0.32;;;16.40;99.90;;;;;;5094793;28;20089;-77
2023/10/12 11:26:17;;;;;;;0.30;0.30;;;16.30;99.90;;;;;;5094268;28;20533;-77
2023/10/12 11:28:44;;;;;;;0.30;0.30;;;16.40;99.90;;;;;;5094550;28;20505;-74
2023/10/12 11:31:20;;;;;;;;;;;16.40;99.90;;;;;;5094749;28;20515;-76
2023/10/12 11:33:49;;;;;;;0.40;0.40;;;16.50;99.90;;;;;;5094602;28;19973;-77
2023/10/12 11:36:23;;;;;;;0.30;0.30;;;16.50;99.90;;;;;;5094491;28;20032;-77
2023/10/12 11:39:18;;;;;;;0.30;0.30;;;16.50;99.90;;;;;;5094257;28;20036;-76
2023/10/12 11:42:12;;;;;;;0.30;0.30;;;16.50;99.90;;;;;;5094537;28;20047;-78
2023/10/12 11:44:42;;;;;;;0.30;0.30;;;16.50;99.90;;;;;;5094301;28;20051;-74
2023/10/12 11:47:17;;;;;;;0.28;0.28;;;16.60;99.90;;;;;;5094092;28;20040;-77
2023/10/12 11:50:00;;;;;;;0.30;0.30;;;16.60;99.90;;;;;;5094200;28;20087;-75
2023/10/12 11:52:32;;;;;;;0.30;0.30;;;16.60;99.90;;;;;;5094244;28;20088;-78
2023/10/12 11:55:18;;;;;;;0.82;0.60;;;16.50;99.90;;;;;;5093961;28;20444;-77
2023/10/12 11:57:54;;;;;;;0.30;0.30;;;16.40;99.90;;;;;;5093743;28;20452;-73
2023/10/12 12:00:38;;;;;;;0.38;0.38;;;16.40;99.90;;;;;;5093941;28;20036;-75
2023/10/12 12:03:10;;;;;;;0.30;0.30;;;16.30;99.90;;;;;;5092994;28;20040;-72
2023/10/12 12:05:36;;;;;;;0.47;0.47;;;16.30;99.90;;;;;;5093793;28;20075;-73
2023/10/12 12:08:07;;;;;;;0.50;0.50;;;16.20;99.90;;;;;;5093628;28;20066;-73
2023/10/12 12:10:46;;;;;;;0.40;0.40;;;16.10;99.90;;;;;;5093518;28;20055;-74
2023/10/12 12:13:15;;;;;;;0.30;0.30;;;16.20;99.90;;;;;;5093910;28;20048;-75
2023/10/12 12:15:43;;;;;;;0.30;0.30;;;16.00;99.90;;;;;;5095266;28;20040;-77
2023/10/12 12:18:14;;;;;;;0.60;0.60;;;16.00;99.90;;;;;;5097116;28;20036;-77
2023/10/12 12:20:42;;;;;;;0.40;0.40;;;15.80;99.90;;;;;;5095211;28;20044;-80
2023/10/12 12:23:10;;;;;;;0.40;0.40;;;15.80;99.90;;;;;;5094039;28;20048;-78
2023/10/12 12:25:39;;;;;;;1.50;0.50;;;15.60;99.90;;;;;;5094100;28;20036;-77
2023/10/12 12:28:09;;;;;;;0.30;0.30;;;15.50;99.90;;;;;;5091632;28;20050;-76
2023/10/12 12:30:39;;;;;;;0.30;0.30;;;15.50;99.90;;;;;;5093902;28;20051;-76
2023/10/12 12:33:08;;;;;;;0.30;0.30;;;15.40;99.90;;;;;;5093460;28;20032;-81
2023/10/12 12:35:38;;;;;;;0.32;0.32;;;15.40;99.90;;;;;;5093655;28;20495;-81
2023/10/12 12:38:14;;;;;;;0.40;0.40;;;15.30;99.90;;;;;;5094208;28;20105;-76
2023/10/12 12:40:44;;;;;;;0.32;0.32;;;15.40;99.90;;;;;;5093577;28;20051;-75
2023/10/12 12:43:10;;;;;;;0.30;0.30;;;15.40;99.90;;;;;;5092809;28;20087;-74
2023/10/12 12:45:36;;;;;;;0.50;0.50;;;15.30;99.90;;;;;;5093337;28;20071;-74
2023/10/12 12:48:04;;;;;;;9.00;0.77;;;15.30;99.90;;;;;;5093178;28;20472;-74
2023/10/12 12:50:30;;;;;;;0.30;0.30;;;15.30;99.90;;;;;;5093266;28;20044;-75
2023/10/12 12:52:57;;;;;;;0.40;0.37;;;15.30;99.90;;;;;;5093139;28;20115;-72
2023/10/12 12:55:25;;;;;;;;;;;15.30;99.90;;;;;;5093479;28;20495;-74
2023/10/12 12:57:50;;;;;;;0.30;0.30;;;15.30;99.90;;;;;;5093646;28;19923;-75
2023/10/12 13:00:21;;;;;;;1.07;0.97;;;15.30;99.90;;;;;;5094819;28;20124;-74
2023/10/12 13:02:47;;;;;;;0.60;0.50;;;15.20;99.90;;;;;;5095407;28;20052;-74
2023/10/12 13:05:14;;;;;;;1.10;0.90;;;15.10;99.90;;;;;;5096909;28;20061;-75
2023/10/12 13:07:45;;;;;;;0.40;0.40;;;15.00;99.90;;;;;;5093106;28;20468;-76
2023/10/12 13:10:12;;;;;;;0.55;0.55;;;14.80;99.90;;;;;;5093064;28;20043;-76
2023/10/12 13:12:41;;;;;;;0.30;0.30;;;14.60;99.90;;;;;;5092817;28;20036;-74
2023/10/12 13:15:09;;;;;;;0.60;0.60;;;14.50;99.90;;;;;;5092984;28;20278;-74
2023/10/12 13:17:37;;;;;;;0.40;0.40;;;14.40;99.90;;;;;;5093088;28;20115;-75
2023/10/12 13:20:03;;;;;;;0.30;0.30;;;14.30;99.90;;;;;;5091918;28;20051;-78
2023/10/12 13:22:29;;;;;;;0.50;0.50;;;14.20;99.90;;;;;;5092691;28;20126;-74
2023/10/12 13:24:58;;;;;;;2.37;2.20;;;14.10;99.90;;;;;;5093058;28;20072;-74
2023/10/12 13:27:27;;;;;;;0.77;0.77;;;14.00;99.90;;;;;;5092455;28;20400;-75
2023/10/12 13:29:57;;;;;;;0.30;0.30;;;14.00;99.90;;;;;;5092911;28;20379;-74
2023/10/12 13:32:22;;;;;;;0.40;0.40;;;14.00;99.90;;;;;;5092127;28;20044;-74
2023/10/12 13:34:51;;;;;;;0.40;0.40;;;14.00;99.90;;;;;;5092251;28;20036;-74
2023/10/12 13:37:17;;;;;;;0.35;0.35;;;14.10;99.90;;;;;;5091932;28;20032;-73
2023/10/12 13:39:42;;;;;;;0.40;0.40;;;14.00;99.90;;;;;;5095840;28;20430;-78
2023/10/12 13:42:11;;;;;;;0.50;0.50;;;14.00;99.90;;;;;;5096166;28;20044;-74
2023/10/12 13:44:42;;;;;;;1.00;0.50;;;13.90;99.90;;;;;;5096553;28;20036;-74
2023/10/12 13:47:08;;;;;;;0.40;0.40;;;13.90;99.90;;;;;;5096679;28;20098;-75
2023/10/12 13:49:37;;;;;;;0.40;0.40;;;13.90;99.90;;;;;;5096562;28;20483;-74
2023/10/12 13:52:10;;;;;;;0.40;0.40;;;13.90;99.90;;;;;;5096405;28;20043;-74
2023/10/12 13:54:36;;;;;;;0.50;0.50;;;13.90;99.90;;;;;;5096280;28;20109;-73
2023/10/12 13:57:02;;;;;;;0.85;0.85;;;13.80;99.90;;;;;;5095776;28;20083;-73
2023/10/12 13:59:28;;;;;;;0.40;0.40;;;13.70;99.90;;;;;;5095975;28;20079;-73
2023/10/12 14:01:56;;;;;;;0.40;0.40;;;13.70;99.90;;;;;;5096204;28;20044;-73
2023/10/12 14:04:33;;;;;;;0.40;0.40;;;13.70;99.90;;;;;;5095965;28;20047;-74
2023/10/12 14:07:02;;;;;;;0.50;0.50;;;13.70;99.90;;;;;;5096167;28;20044;-73
2023/10/12 14:09:28;;;;;;;0.40;0.40;;;13.70;99.90;;;;;;5096061;28;20490;-73
2023/10/12 14:11:55;;;;;;;0.40;0.40;;;13.70;99.90;;;;;;5095975;28;20032;-74
2023/10/12 14:14:21;;;;;;;0.47;0.47;;;13.60;99.90;;;;;;5095648;28;20101;-74
2023/10/12 14:16:47;;;;;;;0.40;0.40;;;13.70;99.90;;;;;;5095773;28;20028;-75
2023/10/12 14:19:16;;;;;;;0.40;0.40;;;13.70;99.90;;;;;;5092429;28;20044;-73
2023/10/12 14:21:42;;;;;;;0.65;0.65;;;13.70;99.90;;;;;;5095495;28;20040;-79
2023/10/12 14:24:11;;;;;;;0.60;0.60;;;13.50;99.90;;;;;;5095375;28;20387;-74
2023/10/12 14:26:37;;;;;;;0.40;0.40;;;13.60;99.90;;;;;;5095845;28;20032;-77
2023/10/12 14:29:09;;;;;;;0.40;0.40;;;13.50;99.90;;;;;;5095549;28;20490;-75
2023/10/12 14:31:34;;;;;;;0.73;0.73;;;13.50;99.90;;;;;;5095903;28;20039;-76
2023/10/12 14:34:00;;;;;;;0.60;0.60;;;13.50;99.90;;;;;;5095771;28;20044;-78
2023/10/12 14:36:26;;;;;;;0.40;0.40;;;13.50;99.90;;;;;;5094113;28;20042;-72
2023/10/12 14:38:54;;;;;;;0.40;0.40;;;13.50;99.90;;;;;;5094704;28;20036;-73
2023/10/12 14:41:21;;;;;;;1.25;0.60;;;13.50;99.90;;;;;;5095352;28;20317;-77
2023/10/12 14:43:47;;;;;;;0.60;0.60;;;13.40;99.90;;;;;;5094829;28;20044;-78
2023/10/12 14:46:14;;;;;;;0.43;0.43;;;13.50;99.90;;;;;;5093825;28;20032;-75
2023/10/12 14:48:43;;;;;;;2.20;0.82;;;13.50;99.90;;;;;;5094651;28;20282;-76
2023/10/12 14:51:12;;;;;;;0.50;0.50;;;13.50;99.90;;;;;;5094855;28;20467;-76
2023/10/12 14:53:39;;;;;;;0.50;0.50;;;13.50;99.90;;;;;;5094234;28;20056;-76
2023/10/12 14:56:05;;;;;;;0.88;0.88;;;13.50;99.90;;;;;;5095481;28;20460;-76
2023/10/12 14:58:32;;;;;;;0.88;0.43;;;13.50;99.90;;;;;;5093603;28;20075;-76
2023/10/12 15:00:58;;;;;;;3.53;1.02;;;13.50;99.90;;;;;;5095130;28;20036;-74
2023/10/12 15:03:23;;;;;;;8.00;0.50;;;13.30;99.90;;;;;;5095169;28;20040;-76
2023/10/12 15:05:53;;;;;;;0.40;0.40;;;13.40;99.90;;;;;;5095139;28;20040;-77
2023/10/12 15:08:23;;;;;;;0.55;0.55;;;13.30;99.90;;;;;;5095073;28;20551;-75
2023/10/12 15:10:49;;;;;;;4.95;1.35;;;13.70;99.90;;;;;;5095075;28;20040;-74
2023/10/12 15:13:16;;;;;;;0.40;0.40;;;13.30;99.90;;;;;;5094748;28;20109;-76
2023/10/12 15:15:46;;;;;;;0.50;0.50;;;13.20;99.90;;;;;;5094809;28;20428;-76
2023/10/12 15:18:17;;;;;;;0.50;0.50;;;13.30;99.90;;;;;;5095066;28;20383;-76
2023/10/12 15:20:44;;;;;;;0.50;0.50;;;13.30;99.90;;;;;;5094786;28;20043;-75
2023/10/12 15:23:17;;;;;;;0.60;0.60;;;13.20;99.90;;;;;;5094536;28;20491;-76
2023/10/12 15:25:43;;;;;;;0.47;0.47;;;13.30;99.90;;;;;;5094605;28;20061;-79
2023/10/12 15:28:09;;;;;;;0.50;0.50;;;13.30;99.90;;;;;;5102041;28;20043;-72
2023/10/12 15:30:42;;;;;;;0.50;0.50;;;13.30;99.90;;;;;;5107736;28;20555;-73
2023/10/12 15:33:08;;;;;;;0.50;0.50;;;13.30;99.90;;;;;;5097046;28;20270;-74